sensor_id;sensor_type;location;lat;lon;timestamp;P1;durP1;ratioP1;P2;durP2;ratioP2
4686;SDS011;2357;47.316;-1.348;2023-02-15T00:01:15;10.73;;;6.83;;
4686;SDS011;2357;47.316;-1.348;2023-02-15T00:03:41;16.70;;;7.87;;
4686;SDS011;2357;47.316;-1.348;2023-02-15T00:06:06;11.70;;;8.80;;
4686;SDS011;2357;47.316;-1.348;2023-02-15T00:08:32;11.53;;;8.27;;
4686;SDS011;2357;47.316;-1.348;2023-02-15T00:13:33;13.80;;;8.37;;
4686;SDS011;2357;47.316;-1.348;2023-02-15T00:16:05;18.90;;;9.27;;
4686;SDS011;2357;47.316;-1.348;2023-02-15T00:18:32;11.43;;;7.70;;
4686;SDS011;2357;47.316;-1.348;2023-02-15T00:20:58;14.77;;;8.50;;
4686;SDS011;2357;47.316;-1.348;2023-02-15T00:23:29;16.13;;;9.07;;
4686;SDS011;2357;47.316;-1.348;2023-02-15T00:26:02;13.73;;;7.43;;
4686;SDS011;2357;47.316;-1.348;2023-02-15T00:28:32;9.63;;;6.63;;
4686;SDS011;2357;47.316;-1.348;2023-02-15T00:31:07;12.53;;;7.90;;
4686;SDS011;2357;47.316;-1.348;2023-02-15T00:33:34;13.77;;;8.00;;
4686;SDS011;2357;47.316;-1.348;2023-02-15T00:36:01;13.03;;;6.87;;
4686;SDS011;2357;47.316;-1.348;2023-02-15T00:38:28;12.53;;;7.40;;
4686;SDS011;2357;47.316;-1.348;2023-02-15T00:40:54;15.10;;;7.37;;
4686;SDS011;2357;47.316;-1.348;2023-02-15T00:43:21;10.87;;;6.73;;
4686;SDS011;2357;47.316;-1.348;2023-02-15T00:45:47;13.80;;;8.23;;
4686;SDS011;2357;47.316;-1.348;2023-02-15T00:48:12;7.10;;;5.73;;
4686;SDS011;2357;47.316;-1.348;2023-02-15T00:50:38;14.83;;;8.67;;
4686;SDS011;2357;47.316;-1.348;2023-02-15T00:53:04;12.80;;;7.10;;
4686;SDS011;2357;47.316;-1.348;2023-02-15T00:55:30;11.77;;;6.70;;
4686;SDS011;2357;47.316;-1.348;2023-02-15T00:57:56;14.00;;;7.50;;
4686;SDS011;2357;47.316;-1.348;2023-02-15T01:00:22;11.13;;;6.67;;
4686;SDS011;2357;47.316;-1.348;2023-02-15T01:02:47;14.77;;;6.53;;
4686;SDS011;2357;47.316;-1.348;2023-02-15T01:05:13;11.67;;;6.63;;
4686;SDS011;2357;47.316;-1.348;2023-02-15T01:07:39;10.73;;;8.43;;
4686;SDS011;2357;47.316;-1.348;2023-02-15T01:10:05;12.00;;;7.50;;
4686;SDS011;2357;47.316;-1.348;2023-02-15T01:12:32;9.63;;;7.43;;
4686;SDS011;2357;47.316;-1.348;2023-02-15T01:14:58;11.40;;;7.30;;
4686;SDS011;2357;47.316;-1.348;2023-02-15T01:17:24;11.17;;;7.57;;
4686;SDS011;2357;47.316;-1.348;2023-02-15T01:19:49;8.47;;;6.93;;
4686;SDS011;2357;47.316;-1.348;2023-02-15T01:22:16;10.07;;;6.93;;
4686;SDS011;2357;47.316;-1.348;2023-02-15T01:24:42;10.00;;;7.10;;
4686;SDS011;2357;47.316;-1.348;2023-02-15T01:27:08;8.47;;;6.77;;
4686;SDS011;2357;47.316;-1.348;2023-02-15T01:29:33;15.90;;;7.50;;
4686;SDS011;2357;47.316;-1.348;2023-02-15T01:31:59;9.67;;;6.90;;
4686;SDS011;2357;47.316;-1.348;2023-02-15T01:34:25;12.30;;;7.10;;
4686;SDS011;2357;47.316;-1.348;2023-02-15T01:36:50;10.63;;;7.47;;
4686;SDS011;2357;47.316;-1.348;2023-02-15T01:39:16;11.43;;;6.40;;
4686;SDS011;2357;47.316;-1.348;2023-02-15T01:41:41;9.13;;;6.77;;
4686;SDS011;2357;47.316;-1.348;2023-02-15T01:47:10;10.23;;;6.70;;
4686;SDS011;2357;47.316;-1.348;2023-02-15T01:49:40;10.07;;;6.53;;
4686;SDS011;2357;47.316;-1.348;2023-02-15T01:52:09;13.67;;;7.33;;
4686;SDS011;2357;47.316;-1.348;2023-02-15T01:54:39;8.50;;;6.67;;
4686;SDS011;2357;47.316;-1.348;2023-02-15T01:57:09;10.07;;;7.00;;
4686;SDS011;2357;47.316;-1.348;2023-02-15T01:59:38;12.97;;;7.23;;
4686;SDS011;2357;47.316;-1.348;2023-02-15T02:02:07;11.67;;;6.77;;
4686;SDS011;2357;47.316;-1.348;2023-02-15T02:04:41;17.13;;;10.20;;
4686;SDS011;2357;47.316;-1.348;2023-02-15T02:07:13;12.73;;;8.53;;
4686;SDS011;2357;47.316;-1.348;2023-02-15T02:09:40;10.90;;;7.60;;
4686;SDS011;2357;47.316;-1.348;2023-02-15T02:12:06;12.77;;;7.70;;
4686;SDS011;2357;47.316;-1.348;2023-02-15T02:14:33;8.80;;;6.80;;
4686;SDS011;2357;47.316;-1.348;2023-02-15T02:17:42;14.53;;;7.57;;
4686;SDS011;2357;47.316;-1.348;2023-02-15T02:25:57;15.57;;;8.03;;
4686;SDS011;2357;47.316;-1.348;2023-02-15T02:37:31;12.30;;;7.60;;
4686;SDS011;2357;47.316;-1.348;2023-02-15T02:40:13;11.23;;;7.40;;
4686;SDS011;2357;47.316;-1.348;2023-02-15T02:43:05;11.57;;;7.73;;
4686;SDS011;2357;47.316;-1.348;2023-02-15T02:45:40;17.00;;;7.67;;
4686;SDS011;2357;47.316;-1.348;2023-02-15T02:48:12;18.30;;;8.90;;
4686;SDS011;2357;47.316;-1.348;2023-02-15T02:50:42;18.90;;;7.97;;
4686;SDS011;2357;47.316;-1.348;2023-02-15T02:53:09;11.00;;;7.20;;
4686;SDS011;2357;47.316;-1.348;2023-02-15T02:58:51;13.70;;;7.87;;
4686;SDS011;2357;47.316;-1.348;2023-02-15T03:01:27;15.23;;;9.27;;
4686;SDS011;2357;47.316;-1.348;2023-02-15T03:04:07;12.63;;;8.83;;
4686;SDS011;2357;47.316;-1.348;2023-02-15T03:09:25;16.30;;;9.97;;
4686;SDS011;2357;47.316;-1.348;2023-02-15T03:11:59;14.70;;;9.47;;
4686;SDS011;2357;47.316;-1.348;2023-02-15T03:14:26;14.13;;;8.77;;
4686;SDS011;2357;47.316;-1.348;2023-02-15T03:16:52;15.50;;;9.80;;
4686;SDS011;2357;47.316;-1.348;2023-02-15T03:19:23;13.80;;;8.83;;
4686;SDS011;2357;47.316;-1.348;2023-02-15T03:21:56;15.87;;;7.90;;
4686;SDS011;2357;47.316;-1.348;2023-02-15T03:24:35;12.60;;;8.30;;
4686;SDS011;2357;47.316;-1.348;2023-02-15T03:27:06;14.33;;;9.20;;
4686;SDS011;2357;47.316;-1.348;2023-02-15T03:29:37;17.10;;;9.30;;
4686;SDS011;2357;47.316;-1.348;2023-02-15T03:32:04;12.40;;;8.90;;
4686;SDS011;2357;47.316;-1.348;2023-02-15T03:34:32;14.80;;;8.93;;
4686;SDS011;2357;47.316;-1.348;2023-02-15T03:37:00;12.83;;;8.63;;
4686;SDS011;2357;47.316;-1.348;2023-02-15T03:42:26;17.27;;;10.60;;
4686;SDS011;2357;47.316;-1.348;2023-02-15T03:45:02;11.83;;;8.30;;
4686;SDS011;2357;47.316;-1.348;2023-02-15T03:47:36;14.40;;;8.33;;
4686;SDS011;2357;47.316;-1.348;2023-02-15T03:52:53;18.63;;;9.53;;
4686;SDS011;2357;47.316;-1.348;2023-02-15T03:55:20;16.60;;;10.17;;
4686;SDS011;2357;47.316;-1.348;2023-02-15T03:57:46;12.40;;;7.43;;
4686;SDS011;2357;47.316;-1.348;2023-02-15T04:00:30;11.33;;;8.40;;
4686;SDS011;2357;47.316;-1.348;2023-02-15T04:03:22;11.17;;;7.40;;
4686;SDS011;2357;47.316;-1.348;2023-02-15T04:05:48;14.10;;;8.30;;
4686;SDS011;2357;47.316;-1.348;2023-02-15T04:08:14;13.33;;;7.80;;
4686;SDS011;2357;47.316;-1.348;2023-02-15T04:10:40;12.57;;;8.47;;
4686;SDS011;2357;47.316;-1.348;2023-02-15T04:13:21;12.57;;;8.07;;
4686;SDS011;2357;47.316;-1.348;2023-02-15T04:15:48;12.80;;;8.13;;
4686;SDS011;2357;47.316;-1.348;2023-02-15T04:21:15;15.90;;;9.30;;
4686;SDS011;2357;47.316;-1.348;2023-02-15T04:23:59;15.27;;;9.40;;
4686;SDS011;2357;47.316;-1.348;2023-02-15T04:26:43;13.83;;;9.10;;
4686;SDS011;2357;47.316;-1.348;2023-02-15T04:29:08;17.60;;;11.33;;
4686;SDS011;2357;47.316;-1.348;2023-02-15T04:31:34;13.83;;;9.50;;
4686;SDS011;2357;47.316;-1.348;2023-02-15T04:33:59;16.00;;;9.63;;
4686;SDS011;2357;47.316;-1.348;2023-02-15T04:36:25;12.40;;;8.60;;
4686;SDS011;2357;47.316;-1.348;2023-02-15T04:38:51;15.77;;;8.83;;
4686;SDS011;2357;47.316;-1.348;2023-02-15T04:41:16;18.00;;;8.10;;
4686;SDS011;2357;47.316;-1.348;2023-02-15T04:43:42;15.57;;;8.20;;
4686;SDS011;2357;47.316;-1.348;2023-02-15T04:46:07;12.53;;;7.03;;
4686;SDS011;2357;47.316;-1.348;2023-02-15T04:48:33;13.63;;;6.40;;
4686;SDS011;2357;47.316;-1.348;2023-02-15T04:50:59;10.73;;;7.30;;
4686;SDS011;2357;47.316;-1.348;2023-02-15T04:53:29;12.70;;;8.07;;
4686;SDS011;2357;47.316;-1.348;2023-02-15T04:55:55;12.90;;;8.30;;
4686;SDS011;2357;47.316;-1.348;2023-02-15T04:58:20;15.47;;;8.93;;
4686;SDS011;2357;47.316;-1.348;2023-02-15T05:00:46;13.13;;;8.03;;
4686;SDS011;2357;47.316;-1.348;2023-02-15T05:03:11;13.53;;;9.37;;
4686;SDS011;2357;47.316;-1.348;2023-02-15T05:05:37;11.70;;;8.43;;
4686;SDS011;2357;47.316;-1.348;2023-02-15T05:08:03;12.10;;;8.87;;
4686;SDS011;2357;47.316;-1.348;2023-02-15T05:10:28;19.70;;;9.53;;
4686;SDS011;2357;47.316;-1.348;2023-02-15T05:12:54;14.70;;;9.80;;
4686;SDS011;2357;47.316;-1.348;2023-02-15T05:15:20;15.17;;;8.67;;
4686;SDS011;2357;47.316;-1.348;2023-02-15T05:17:45;13.10;;;9.80;;
4686;SDS011;2357;47.316;-1.348;2023-02-15T05:20:11;14.57;;;9.27;;
4686;SDS011;2357;47.316;-1.348;2023-02-15T05:22:37;13.60;;;7.73;;
4686;SDS011;2357;47.316;-1.348;2023-02-15T05:25:02;14.97;;;9.00;;
4686;SDS011;2357;47.316;-1.348;2023-02-15T05:27:46;15.57;;;9.60;;
4686;SDS011;2357;47.316;-1.348;2023-02-15T05:30:31;15.67;;;9.43;;
4686;SDS011;2357;47.316;-1.348;2023-02-15T05:32:56;12.10;;;9.00;;
4686;SDS011;2357;47.316;-1.348;2023-02-15T05:35:22;14.30;;;9.83;;
4686;SDS011;2357;47.316;-1.348;2023-02-15T05:37:48;15.03;;;9.47;;
4686;SDS011;2357;47.316;-1.348;2023-02-15T05:40:13;22.53;;;10.13;;
4686;SDS011;2357;47.316;-1.348;2023-02-15T05:42:39;16.03;;;9.33;;
4686;SDS011;2357;47.316;-1.348;2023-02-15T05:45:05;18.57;;;10.30;;
4686;SDS011;2357;47.316;-1.348;2023-02-15T05:47:31;15.90;;;9.93;;
4686;SDS011;2357;47.316;-1.348;2023-02-15T05:49:56;16.23;;;10.70;;
4686;SDS011;2357;47.316;-1.348;2023-02-15T05:52:22;17.10;;;9.73;;
4686;SDS011;2357;47.316;-1.348;2023-02-15T05:54:47;16.33;;;9.17;;
4686;SDS011;2357;47.316;-1.348;2023-02-15T05:57:13;20.90;;;7.90;;
4686;SDS011;2357;47.316;-1.348;2023-02-15T05:59:39;23.80;;;8.70;;
4686;SDS011;2357;47.316;-1.348;2023-02-15T06:02:04;12.80;;;8.00;;
4686;SDS011;2357;47.316;-1.348;2023-02-15T06:04:31;11.47;;;8.40;;
4686;SDS011;2357;47.316;-1.348;2023-02-15T06:06:57;14.53;;;9.43;;
4686;SDS011;2357;47.316;-1.348;2023-02-15T06:09:22;11.93;;;9.73;;
4686;SDS011;2357;47.316;-1.348;2023-02-15T06:11:48;17.23;;;9.80;;
4686;SDS011;2357;47.316;-1.348;2023-02-15T06:14:14;19.30;;;8.93;;
4686;SDS011;2357;47.316;-1.348;2023-02-15T06:16:39;15.53;;;9.97;;
4686;SDS011;2357;47.316;-1.348;2023-02-15T06:19:05;14.37;;;9.03;;
4686;SDS011;2357;47.316;-1.348;2023-02-15T06:21:30;13.77;;;9.10;;
4686;SDS011;2357;47.316;-1.348;2023-02-15T06:23:56;16.33;;;9.47;;
4686;SDS011;2357;47.316;-1.348;2023-02-15T06:26:22;13.97;;;9.00;;
4686;SDS011;2357;47.316;-1.348;2023-02-15T06:28:48;14.67;;;9.50;;
4686;SDS011;2357;47.316;-1.348;2023-02-15T06:31:13;24.57;;;8.87;;
4686;SDS011;2357;47.316;-1.348;2023-02-15T06:33:40;13.70;;;8.30;;
4686;SDS011;2357;47.316;-1.348;2023-02-15T06:36:05;13.87;;;8.17;;
4686;SDS011;2357;47.316;-1.348;2023-02-15T06:38:32;16.63;;;9.57;;
4686;SDS011;2357;47.316;-1.348;2023-02-15T06:40:57;16.57;;;9.60;;
4686;SDS011;2357;47.316;-1.348;2023-02-15T06:43:23;22.07;;;9.43;;
4686;SDS011;2357;47.316;-1.348;2023-02-15T06:45:49;15.93;;;9.37;;
4686;SDS011;2357;47.316;-1.348;2023-02-15T06:48:14;14.53;;;9.93;;
4686;SDS011;2357;47.316;-1.348;2023-02-15T06:50:40;23.73;;;9.07;;
4686;SDS011;2357;47.316;-1.348;2023-02-15T06:53:06;19.43;;;9.00;;
4686;SDS011;2357;47.316;-1.348;2023-02-15T06:55:31;12.47;;;7.90;;
4686;SDS011;2357;47.316;-1.348;2023-02-15T06:57:57;10.83;;;8.23;;
4686;SDS011;2357;47.316;-1.348;2023-02-15T07:00:22;15.47;;;8.83;;
4686;SDS011;2357;47.316;-1.348;2023-02-15T07:02:54;12.17;;;7.97;;
4686;SDS011;2357;47.316;-1.348;2023-02-15T07:05:21;14.80;;;9.60;;
4686;SDS011;2357;47.316;-1.348;2023-02-15T07:07:47;17.97;;;9.77;;
4686;SDS011;2357;47.316;-1.348;2023-02-15T07:10:13;15.80;;;9.07;;
4686;SDS011;2357;47.316;-1.348;2023-02-15T07:12:38;13.63;;;9.20;;
4686;SDS011;2357;47.316;-1.348;2023-02-15T07:15:11;14.03;;;9.77;;
4686;SDS011;2357;47.316;-1.348;2023-02-15T07:17:40;16.50;;;10.40;;
4686;SDS011;2357;47.316;-1.348;2023-02-15T07:20:08;14.10;;;9.17;;
4686;SDS011;2357;47.316;-1.348;2023-02-15T07:22:34;17.17;;;10.53;;
4686;SDS011;2357;47.316;-1.348;2023-02-15T07:25:02;15.70;;;9.63;;
4686;SDS011;2357;47.316;-1.348;2023-02-15T07:27:28;14.87;;;8.43;;
4686;SDS011;2357;47.316;-1.348;2023-02-15T07:29:54;10.90;;;9.13;;
4686;SDS011;2357;47.316;-1.348;2023-02-15T07:32:19;15.30;;;10.17;;
4686;SDS011;2357;47.316;-1.348;2023-02-15T07:34:45;14.30;;;9.90;;
4686;SDS011;2357;47.316;-1.348;2023-02-15T07:37:11;14.53;;;10.70;;
4686;SDS011;2357;47.316;-1.348;2023-02-15T07:39:36;13.90;;;9.50;;
4686;SDS011;2357;47.316;-1.348;2023-02-15T07:42:02;15.00;;;9.60;;
4686;SDS011;2357;47.316;-1.348;2023-02-15T07:44:28;12.00;;;9.70;;
4686;SDS011;2357;47.316;-1.348;2023-02-15T07:46:53;19.73;;;10.30;;
4686;SDS011;2357;47.316;-1.348;2023-02-15T07:49:19;16.53;;;10.03;;
4686;SDS011;2357;47.316;-1.348;2023-02-15T07:51:44;15.30;;;10.40;;
4686;SDS011;2357;47.316;-1.348;2023-02-15T07:54:11;14.53;;;9.57;;
4686;SDS011;2357;47.316;-1.348;2023-02-15T07:56:36;18.30;;;10.07;;
4686;SDS011;2357;47.316;-1.348;2023-02-15T07:59:02;22.83;;;11.00;;
4686;SDS011;2357;47.316;-1.348;2023-02-15T08:01:33;14.47;;;10.63;;
4686;SDS011;2357;47.316;-1.348;2023-02-15T08:04:01;14.70;;;10.20;;
4686;SDS011;2357;47.316;-1.348;2023-02-15T08:06:29;18.87;;;10.93;;
4686;SDS011;2357;47.316;-1.348;2023-02-15T08:08:56;15.83;;;11.07;;
4686;SDS011;2357;47.316;-1.348;2023-02-15T08:11:25;13.07;;;10.13;;
4686;SDS011;2357;47.316;-1.348;2023-02-15T08:14:02;16.10;;;9.90;;
4686;SDS011;2357;47.316;-1.348;2023-02-15T08:19:06;17.63;;;11.57;;
4686;SDS011;2357;47.316;-1.348;2023-02-15T08:21:36;19.87;;;12.40;;
4686;SDS011;2357;47.316;-1.348;2023-02-15T08:24:04;13.73;;;11.07;;
4686;SDS011;2357;47.316;-1.348;2023-02-15T08:26:31;21.17;;;10.57;;
4686;SDS011;2357;47.316;-1.348;2023-02-15T08:28:57;18.73;;;10.27;;
4686;SDS011;2357;47.316;-1.348;2023-02-15T08:31:23;15.80;;;11.30;;
4686;SDS011;2357;47.316;-1.348;2023-02-15T08:33:49;17.17;;;9.90;;
4686;SDS011;2357;47.316;-1.348;2023-02-15T08:36:17;13.03;;;9.80;;
4686;SDS011;2357;47.316;-1.348;2023-02-15T08:38:44;13.60;;;8.17;;
4686;SDS011;2357;47.316;-1.348;2023-02-15T08:41:11;13.70;;;9.30;;
4686;SDS011;2357;47.316;-1.348;2023-02-15T08:43:42;20.83;;;9.00;;
4686;SDS011;2357;47.316;-1.348;2023-02-15T08:46:09;14.00;;;10.17;;
4686;SDS011;2357;47.316;-1.348;2023-02-15T08:48:35;21.00;;;10.60;;
4686;SDS011;2357;47.316;-1.348;2023-02-15T08:51:09;15.60;;;9.80;;
4686;SDS011;2357;47.316;-1.348;2023-02-15T08:53:40;17.30;;;10.60;;
4686;SDS011;2357;47.316;-1.348;2023-02-15T08:56:08;13.53;;;8.10;;
4686;SDS011;2357;47.316;-1.348;2023-02-15T08:58:34;15.67;;;10.20;;
4686;SDS011;2357;47.316;-1.348;2023-02-15T09:01:00;10.50;;;8.03;;
4686;SDS011;2357;47.316;-1.348;2023-02-15T09:03:32;15.33;;;8.87;;
4686;SDS011;2357;47.316;-1.348;2023-02-15T09:05:58;15.33;;;7.80;;
4686;SDS011;2357;47.316;-1.348;2023-02-15T09:08:25;11.73;;;7.57;;
4686;SDS011;2357;47.316;-1.348;2023-02-15T09:10:52;15.00;;;7.60;;
4686;SDS011;2357;47.316;-1.348;2023-02-15T09:13:18;15.63;;;7.47;;
4686;SDS011;2357;47.316;-1.348;2023-02-15T09:15:43;14.23;;;7.77;;
4686;SDS011;2357;47.316;-1.348;2023-02-15T09:18:09;11.13;;;7.23;;
4686;SDS011;2357;47.316;-1.348;2023-02-15T09:20:36;10.33;;;6.80;;
4686;SDS011;2357;47.316;-1.348;2023-02-15T09:23:02;11.10;;;7.97;;
4686;SDS011;2357;47.316;-1.348;2023-02-15T09:25:28;9.63;;;6.90;;
4686;SDS011;2357;47.316;-1.348;2023-02-15T09:27:54;19.50;;;8.73;;
4686;SDS011;2357;47.316;-1.348;2023-02-15T09:30:19;17.53;;;7.23;;
4686;SDS011;2357;47.316;-1.348;2023-02-15T09:32:45;21.33;;;8.40;;
4686;SDS011;2357;47.316;-1.348;2023-02-15T09:35:12;13.70;;;7.40;;
4686;SDS011;2357;47.316;-1.348;2023-02-15T09:37:37;13.50;;;7.57;;
4686;SDS011;2357;47.316;-1.348;2023-02-15T09:40:03;10.40;;;7.30;;
4686;SDS011;2357;47.316;-1.348;2023-02-15T09:48:06;11.10;;;7.40;;
4686;SDS011;2357;47.316;-1.348;2023-02-15T09:56:17;15.30;;;7.90;;
4686;SDS011;2357;47.316;-1.348;2023-02-15T09:59:10;15.80;;;8.07;;
4686;SDS011;2357;47.316;-1.348;2023-02-15T10:22:04;20.23;;;8.60;;
4686;SDS011;2357;47.316;-1.348;2023-02-15T10:27:36;17.03;;;8.57;;
4686;SDS011;2357;47.316;-1.348;2023-02-15T10:30:13;10.43;;;7.20;;
4686;SDS011;2357;47.316;-1.348;2023-02-15T10:35:23;9.17;;;7.10;;
4686;SDS011;2357;47.316;-1.348;2023-02-15T10:40:55;10.53;;;6.10;;
4686;SDS011;2357;47.316;-1.348;2023-02-15T10:46:12;11.33;;;7.13;;
4686;SDS011;2357;47.316;-1.348;2023-02-15T10:49:05;12.23;;;6.60;;
4686;SDS011;2357;47.316;-1.348;2023-02-15T10:54:48;9.13;;;6.90;;
4686;SDS011;2357;47.316;-1.348;2023-02-15T10:57:34;10.80;;;7.23;;
4686;SDS011;2357;47.316;-1.348;2023-02-15T11:00:14;14.80;;;7.40;;
4686;SDS011;2357;47.316;-1.348;2023-02-15T11:06:04;21.23;;;7.53;;
4686;SDS011;2357;47.316;-1.348;2023-02-15T11:08:32;13.50;;;8.60;;
4686;SDS011;2357;47.316;-1.348;2023-02-15T11:11:06;12.43;;;7.43;;
4686;SDS011;2357;47.316;-1.348;2023-02-15T11:13:41;10.10;;;7.30;;
4686;SDS011;2357;47.316;-1.348;2023-02-15T11:16:16;16.53;;;6.80;;
4686;SDS011;2357;47.316;-1.348;2023-02-15T11:21:22;10.20;;;6.73;;
4686;SDS011;2357;47.316;-1.348;2023-02-15T11:23:53;6.87;;;6.00;;
4686;SDS011;2357;47.316;-1.348;2023-02-15T11:26:28;11.80;;;6.70;;
4686;SDS011;2357;47.316;-1.348;2023-02-15T11:28:59;10.77;;;7.93;;
4686;SDS011;2357;47.316;-1.348;2023-02-15T11:31:43;11.73;;;6.50;;
4686;SDS011;2357;47.316;-1.348;2023-02-15T11:34:20;14.83;;;7.07;;
4686;SDS011;2357;47.316;-1.348;2023-02-15T11:36:47;9.77;;;6.87;;
4686;SDS011;2357;47.316;-1.348;2023-02-15T11:39:16;10.53;;;7.10;;
4686;SDS011;2357;47.316;-1.348;2023-02-15T11:41:46;16.33;;;6.70;;
4686;SDS011;2357;47.316;-1.348;2023-02-15T11:46:42;12.20;;;8.10;;
4686;SDS011;2357;47.316;-1.348;2023-02-15T11:51:52;10.53;;;7.10;;
4686;SDS011;2357;47.316;-1.348;2023-02-15T11:54:20;8.90;;;6.80;;
4686;SDS011;2357;47.316;-1.348;2023-02-15T11:56:50;8.73;;;7.10;;
4686;SDS011;2357;47.316;-1.348;2023-02-15T11:59:22;15.17;;;7.17;;
4686;SDS011;2357;47.316;-1.348;2023-02-15T12:01:53;12.13;;;7.20;;
4686;SDS011;2357;47.316;-1.348;2023-02-15T12:04:38;13.27;;;7.30;;
4686;SDS011;2357;47.316;-1.348;2023-02-15T12:07:28;13.17;;;8.50;;
4686;SDS011;2357;47.316;-1.348;2023-02-15T12:12:53;15.47;;;8.27;;
4686;SDS011;2357;47.316;-1.348;2023-02-15T12:15:57;9.60;;;7.07;;
4686;SDS011;2357;47.316;-1.348;2023-02-15T12:18:38;17.70;;;7.53;;
4686;SDS011;2357;47.316;-1.348;2023-02-15T12:21:07;12.10;;;7.10;;
4686;SDS011;2357;47.316;-1.348;2023-02-15T12:23:48;17.33;;;7.80;;
4686;SDS011;2357;47.316;-1.348;2023-02-15T12:26:22;12.07;;;7.47;;
4686;SDS011;2357;47.316;-1.348;2023-02-15T12:28:53;12.40;;;7.50;;
4686;SDS011;2357;47.316;-1.348;2023-02-15T12:36:56;11.03;;;7.20;;
4686;SDS011;2357;47.316;-1.348;2023-02-15T12:39:28;13.93;;;8.03;;
4686;SDS011;2357;47.316;-1.348;2023-02-15T12:44:52;15.60;;;8.63;;
4686;SDS011;2357;47.316;-1.348;2023-02-15T12:47:18;13.43;;;8.60;;
4686;SDS011;2357;47.316;-1.348;2023-02-15T12:49:45;12.57;;;8.33;;
4686;SDS011;2357;47.316;-1.348;2023-02-15T12:52:36;13.20;;;8.20;;
4686;SDS011;2357;47.316;-1.348;2023-02-15T12:55:21;11.00;;;8.33;;
4686;SDS011;2357;47.316;-1.348;2023-02-15T12:58:04;11.20;;;7.90;;
4686;SDS011;2357;47.316;-1.348;2023-02-15T13:00:44;13.80;;;8.10;;
4686;SDS011;2357;47.316;-1.348;2023-02-15T13:03:20;8.93;;;7.30;;
4686;SDS011;2357;47.316;-1.348;2023-02-15T13:05:51;14.10;;;8.07;;
4686;SDS011;2357;47.316;-1.348;2023-02-15T13:10:59;12.33;;;8.67;;
4686;SDS011;2357;47.316;-1.348;2023-02-15T13:13:33;10.67;;;7.07;;
4686;SDS011;2357;47.316;-1.348;2023-02-15T13:16:09;9.60;;;7.53;;
4686;SDS011;2357;47.316;-1.348;2023-02-15T13:18:38;9.23;;;7.43;;
4686;SDS011;2357;47.316;-1.348;2023-02-15T13:21:12;13.57;;;7.90;;
4686;SDS011;2357;47.316;-1.348;2023-02-15T13:23:46;12.47;;;6.90;;
4686;SDS011;2357;47.316;-1.348;2023-02-15T13:26:15;9.40;;;6.90;;
4686;SDS011;2357;47.316;-1.348;2023-02-15T13:28:52;17.70;;;7.23;;
4686;SDS011;2357;47.316;-1.348;2023-02-15T13:31:23;16.90;;;7.87;;
4686;SDS011;2357;47.316;-1.348;2023-02-15T13:36:48;9.93;;;7.70;;
4686;SDS011;2357;47.316;-1.348;2023-02-15T14:02:05;10.60;;;5.87;;
4686;SDS011;2357;47.316;-1.348;2023-02-15T14:05:10;13.57;;;7.07;;
4686;SDS011;2357;47.316;-1.348;2023-02-15T14:07:59;10.87;;;6.60;;
4686;SDS011;2357;47.316;-1.348;2023-02-15T14:15:48;9.73;;;6.60;;
4686;SDS011;2357;47.316;-1.348;2023-02-15T14:18:25;12.77;;;6.50;;
4686;SDS011;2357;47.316;-1.348;2023-02-15T14:31:54;10.20;;;6.67;;
4686;SDS011;2357;47.316;-1.348;2023-02-15T14:34:24;9.73;;;6.00;;
4686;SDS011;2357;47.316;-1.348;2023-02-15T14:37:03;9.57;;;6.10;;
4686;SDS011;2357;47.316;-1.348;2023-02-15T14:39:32;16.10;;;6.80;;
4686;SDS011;2357;47.316;-1.348;2023-02-15T14:42:30;12.60;;;7.03;;
4686;SDS011;2357;47.316;-1.348;2023-02-15T14:48:12;13.53;;;7.13;;
4686;SDS011;2357;47.316;-1.348;2023-02-15T14:50:48;10.77;;;5.73;;
4686;SDS011;2357;47.316;-1.348;2023-02-15T14:53:15;6.77;;;5.97;;
4686;SDS011;2357;47.316;-1.348;2023-02-15T14:55:47;9.50;;;5.93;;
4686;SDS011;2357;47.316;-1.348;2023-02-15T14:58:12;7.80;;;5.73;;
4686;SDS011;2357;47.316;-1.348;2023-02-15T15:00:39;12.90;;;5.70;;
4686;SDS011;2357;47.316;-1.348;2023-02-15T15:06:20;10.50;;;6.57;;
4686;SDS011;2357;47.316;-1.348;2023-02-15T15:09:00;11.40;;;5.97;;
4686;SDS011;2357;47.316;-1.348;2023-02-15T15:11:49;7.33;;;5.30;;
4686;SDS011;2357;47.316;-1.348;2023-02-15T15:16:58;11.30;;;6.50;;
4686;SDS011;2357;47.316;-1.348;2023-02-15T15:22:17;10.70;;;6.00;;
4686;SDS011;2357;47.316;-1.348;2023-02-15T15:24:53;24.93;;;5.90;;
4686;SDS011;2357;47.316;-1.348;2023-02-15T15:32:58;11.77;;;5.17;;
4686;SDS011;2357;47.316;-1.348;2023-02-15T15:36:01;13.53;;;4.93;;
4686;SDS011;2357;47.316;-1.348;2023-02-15T15:38:49;13.90;;;6.10;;
4686;SDS011;2357;47.316;-1.348;2023-02-15T15:41:41;11.13;;;6.10;;
4686;SDS011;2357;47.316;-1.348;2023-02-15T15:50:19;19.27;;;6.73;;
4686;SDS011;2357;47.316;-1.348;2023-02-15T15:52:47;9.23;;;5.77;;
4686;SDS011;2357;47.316;-1.348;2023-02-15T15:55:17;10.50;;;5.87;;
4686;SDS011;2357;47.316;-1.348;2023-02-15T15:57:45;7.27;;;5.17;;
4686;SDS011;2357;47.316;-1.348;2023-02-15T16:03:49;9.00;;;5.73;;
4686;SDS011;2357;47.316;-1.348;2023-02-15T16:06:27;10.90;;;5.40;;
4686;SDS011;2357;47.316;-1.348;2023-02-15T16:09:08;21.77;;;5.37;;
4686;SDS011;2357;47.316;-1.348;2023-02-15T16:11:40;14.30;;;6.33;;
4686;SDS011;2357;47.316;-1.348;2023-02-15T16:14:12;10.07;;;5.90;;
4686;SDS011;2357;47.316;-1.348;2023-02-15T16:16:42;13.07;;;5.70;;
4686;SDS011;2357;47.316;-1.348;2023-02-15T16:19:26;11.07;;;6.00;;
4686;SDS011;2357;47.316;-1.348;2023-02-15T16:21:54;12.83;;;5.40;;
4686;SDS011;2357;47.316;-1.348;2023-02-15T16:30:15;9.60;;;5.63;;
4686;SDS011;2357;47.316;-1.348;2023-02-15T16:32:44;9.70;;;5.20;;
4686;SDS011;2357;47.316;-1.348;2023-02-15T16:35:13;7.87;;;5.43;;
4686;SDS011;2357;47.316;-1.348;2023-02-15T16:37:40;11.10;;;5.83;;
4686;SDS011;2357;47.316;-1.348;2023-02-15T16:40:11;10.03;;;5.17;;
4686;SDS011;2357;47.316;-1.348;2023-02-15T16:42:51;10.53;;;5.67;;
4686;SDS011;2357;47.316;-1.348;2023-02-15T16:45:21;9.63;;;6.40;;
4686;SDS011;2357;47.316;-1.348;2023-02-15T16:47:49;8.03;;;5.90;;
4686;SDS011;2357;47.316;-1.348;2023-02-15T16:50:20;18.07;;;6.93;;
4686;SDS011;2357;47.316;-1.348;2023-02-15T16:52:47;14.40;;;7.10;;
4686;SDS011;2357;47.316;-1.348;2023-02-15T16:55:21;21.07;;;6.43;;
4686;SDS011;2357;47.316;-1.348;2023-02-15T16:57:49;15.87;;;8.00;;
4686;SDS011;2357;47.316;-1.348;2023-02-15T17:00:18;8.27;;;6.13;;
4686;SDS011;2357;47.316;-1.348;2023-02-15T17:10:44;20.10;;;6.90;;
4686;SDS011;2357;47.316;-1.348;2023-02-15T17:13:26;8.30;;;5.33;;
4686;SDS011;2357;47.316;-1.348;2023-02-15T17:18:33;27.77;;;6.30;;
4686;SDS011;2357;47.316;-1.348;2023-02-15T17:23:42;10.00;;;6.30;;
4686;SDS011;2357;47.316;-1.348;2023-02-15T17:28:50;9.20;;;6.17;;
4686;SDS011;2357;47.316;-1.348;2023-02-15T17:31:18;18.17;;;7.17;;
4686;SDS011;2357;47.316;-1.348;2023-02-15T17:33:46;15.37;;;8.60;;
4686;SDS011;2357;47.316;-1.348;2023-02-15T17:36:12;13.03;;;7.80;;
4686;SDS011;2357;47.316;-1.348;2023-02-15T17:38:59;19.47;;;8.47;;
4686;SDS011;2357;47.316;-1.348;2023-02-15T17:41:31;17.93;;;7.47;;
4686;SDS011;2357;47.316;-1.348;2023-02-15T17:44:00;23.03;;;6.70;;
4686;SDS011;2357;47.316;-1.348;2023-02-15T17:46:28;20.70;;;7.30;;
4686;SDS011;2357;47.316;-1.348;2023-02-15T17:48:59;24.30;;;6.63;;
4686;SDS011;2357;47.316;-1.348;2023-02-15T17:51:25;11.17;;;6.30;;
4686;SDS011;2357;47.316;-1.348;2023-02-15T17:53:51;16.93;;;6.70;;
4686;SDS011;2357;47.316;-1.348;2023-02-15T17:56:36;11.90;;;6.43;;
4686;SDS011;2357;47.316;-1.348;2023-02-15T17:59:03;14.10;;;7.00;;
4686;SDS011;2357;47.316;-1.348;2023-02-15T18:01:33;17.50;;;6.43;;
4686;SDS011;2357;47.316;-1.348;2023-02-15T18:04:19;17.33;;;6.30;;
4686;SDS011;2357;47.316;-1.348;2023-02-15T18:07:04;23.23;;;7.80;;
4686;SDS011;2357;47.316;-1.348;2023-02-15T18:09:51;19.73;;;7.40;;
4686;SDS011;2357;47.316;-1.348;2023-02-15T18:12:35;12.93;;;8.00;;
4686;SDS011;2357;47.316;-1.348;2023-02-15T18:15:03;19.10;;;8.03;;
4686;SDS011;2357;47.316;-1.348;2023-02-15T18:17:36;26.37;;;8.60;;
4686;SDS011;2357;47.316;-1.348;2023-02-15T18:20:20;16.97;;;8.80;;
4686;SDS011;2357;47.316;-1.348;2023-02-15T18:22:58;25.63;;;8.87;;
4686;SDS011;2357;47.316;-1.348;2023-02-15T18:25:26;17.17;;;9.60;;
4686;SDS011;2357;47.316;-1.348;2023-02-15T18:27:51;18.50;;;12.20;;